sensor_id;sensor_type;location;lat;lon;timestamp;pressure;altitude;pressure_sealevel;temperature;humidity
77452;BME280;66537;52.370;4.832;2023-01-30T00:00:23;101746.31;;;7.53;82.80
77452;BME280;66537;52.370;4.832;2023-01-30T00:02:49;101742.03;;;7.44;83.16
77452;BME280;66537;52.370;4.832;2023-01-30T00:05:14;101742.03;;;7.40;83.14
77452;BME280;66537;52.370;4.832;2023-01-30T00:07:40;101748.06;;;7.37;83.27
77452;BME280;66537;52.370;4.832;2023-01-30T00:10:05;101737.75;;;7.36;83.14
77452;BME280;66537;52.370;4.832;2023-01-30T00:12:31;101741.19;;;7.45;82.99
77452;BME280;66537;52.370;4.832;2023-01-30T00:14:56;101712.00;;;7.48;82.62
77452;BME280;66537;52.370;4.832;2023-01-30T00:17:21;101724.88;;;7.40;83.03
77452;BME280;66537;52.370;4.832;2023-01-30T00:19:47;101716.28;;;7.40;83.01
77452;BME280;66537;52.370;4.832;2023-01-30T00:22:12;101716.31;;;7.34;83.02
77452;BME280;66537;52.370;4.832;2023-01-30T00:24:38;101712.88;;;7.36;83.19
77452;BME280;66537;52.370;4.832;2023-01-30T00:27:03;101716.28;;;7.46;82.68
77452;BME280;66537;52.370;4.832;2023-01-30T00:29:29;101710.28;;;7.48;82.27
77452;BME280;66537;52.370;4.832;2023-01-30T00:31:54;101704.25;;;7.48;82.33
77452;BME280;66537;52.370;4.832;2023-01-30T00:34:19;101716.28;;;7.44;82.21
77452;BME280;66537;52.370;4.832;2023-01-30T00:36:45;101689.66;;;7.57;81.57
77452;BME280;66537;52.370;4.832;2023-01-30T00:39:10;101696.53;;;7.58;81.05
77452;BME280;66537;52.370;4.832;2023-01-30T00:41:35;101695.66;;;7.59;81.33
77452;BME280;66537;52.370;4.832;2023-01-30T00:44:19;101687.97;;;7.55;81.47
77452;BME280;66537;52.370;4.832;2023-01-30T00:47:03;101673.34;;;7.55;81.37
77452;BME280;66537;52.370;4.832;2023-01-30T00:49:33;101665.63;;;7.49;81.75
77452;BME280;66537;52.370;4.832;2023-01-30T00:51:58;101669.94;;;7.44;81.76
77452;BME280;66537;52.370;4.832;2023-01-30T00:54:24;101653.63;;;7.44;82.28
77452;BME280;66537;52.370;4.832;2023-01-30T00:56:49;101644.22;;;7.41;82.33
77452;BME280;66537;52.370;4.832;2023-01-30T00:59:14;101650.22;;;7.43;82.63
77452;BME280;66537;52.370;4.832;2023-01-30T01:01:40;101639.09;;;7.35;82.60
77452;BME280;66537;52.370;4.832;2023-01-30T01:04:06;101651.09;;;7.35;82.47
77452;BME280;66537;52.370;4.832;2023-01-30T01:06:33;101639.09;;;7.34;82.81
77452;BME280;66537;52.370;4.832;2023-01-30T01:08:58;101633.09;;;7.27;82.58
77452;BME280;66537;52.370;4.832;2023-01-30T01:11:23;101639.06;;;7.38;82.63
77452;BME280;66537;52.370;4.832;2023-01-30T01:13:53;101642.50;;;7.39;82.24
77452;BME280;66537;52.370;4.832;2023-01-30T01:16:19;101639.13;;;7.27;82.67
77452;BME280;66537;52.370;4.832;2023-01-30T01:18:45;101627.97;;;7.19;83.44
77452;BME280;66537;52.370;4.832;2023-01-30T01:21:10;101634.00;;;7.20;83.51
77452;BME280;66537;52.370;4.832;2023-01-30T01:23:35;101640.84;;;7.15;83.99
77452;BME280;66537;52.370;4.832;2023-01-30T01:26:01;101637.44;;;7.07;84.19
77452;BME280;66537;52.370;4.832;2023-01-30T01:28:27;101621.16;;;7.02;84.52
77452;BME280;66537;52.370;4.832;2023-01-30T01:30:52;101620.28;;;7.01;84.97
77452;BME280;66537;52.370;4.832;2023-01-30T01:33:17;101618.56;;;6.99;84.85
77452;BME280;66537;52.370;4.832;2023-01-30T01:35:43;101619.47;;;6.95;85.07
77452;BME280;66537;52.370;4.832;2023-01-30T01:38:08;101619.44;;;6.98;85.41
77452;BME280;66537;52.370;4.832;2023-01-30T01:40:34;101635.75;;;6.98;85.00
77452;BME280;66537;52.370;4.832;2023-01-30T01:43:21;101626.31;;;6.90;85.23
77452;BME280;66537;52.370;4.832;2023-01-30T01:45:50;101625.44;;;6.94;85.27
77452;BME280;66537;52.370;4.832;2023-01-30T01:48:43;101614.31;;;6.90;85.35
77452;BME280;66537;52.370;4.832;2023-01-30T01:51:12;101621.16;;;6.90;85.26
77452;BME280;66537;52.370;4.832;2023-01-30T01:53:47;101601.47;;;6.83;85.68
77452;BME280;66537;52.370;4.832;2023-01-30T01:56:16;101611.75;;;6.80;86.29
77452;BME280;66537;52.370;4.832;2023-01-30T01:58:51;101612.63;;;6.79;86.51
77452;BME280;66537;52.370;4.832;2023-01-30T02:01:18;101607.47;;;6.80;86.42
77452;BME280;66537;52.370;4.832;2023-01-30T02:03:47;101607.47;;;6.80;86.50
77452;BME280;66537;52.370;4.832;2023-01-30T02:06:15;101613.47;;;6.78;86.38
77452;BME280;66537;52.370;4.832;2023-01-30T02:08:48;101612.59;;;6.88;85.86
77452;BME280;66537;52.370;4.832;2023-01-30T02:11:44;101609.19;;;6.89;85.73
77452;BME280;66537;52.370;4.832;2023-01-30T02:14:12;101604.03;;;6.90;85.69
77452;BME280;66537;52.370;4.832;2023-01-30T02:16:38;101594.59;;;6.89;85.66
77452;BME280;66537;52.370;4.832;2023-01-30T02:30:35;101604.88;;;7.00;84.85
77452;BME280;66537;52.370;4.832;2023-01-30T02:33:06;101609.13;;;7.01;84.75
77452;BME280;66537;52.370;4.832;2023-01-30T02:35:54;101593.72;;;6.99;84.78
77452;BME280;66537;52.370;4.832;2023-01-30T02:38:40;101597.16;;;7.04;84.76
77452;BME280;66537;52.370;4.832;2023-01-30T02:51:38;101609.13;;;7.16;83.98
77452;BME280;66537;52.370;4.832;2023-01-30T02:54:08;101603.09;;;7.21;83.82
77452;BME280;66537;52.370;4.832;2023-01-30T02:56:46;101598.81;;;7.19;83.76
77452;BME280;66537;52.370;4.832;2023-01-30T02:59:15;101598.81;;;7.23;83.39
77452;BME280;66537;52.370;4.832;2023-01-30T03:02:00;101605.69;;;7.17;83.66
77452;BME280;66537;52.370;4.832;2023-01-30T03:07:24;101588.47;;;7.28;83.56
77452;BME280;66537;52.370;4.832;2023-01-30T03:15:48;101584.16;;;7.38;82.79
77452;BME280;66537;52.370;4.832;2023-01-30T03:18:16;101582.47;;;7.35;82.97
77452;BME280;66537;52.370;4.832;2023-01-30T03:20:43;101582.44;;;7.43;82.49
77452;BME280;66537;52.370;4.832;2023-01-30T03:23:08;101589.28;;;7.44;82.50
77452;BME280;66537;52.370;4.832;2023-01-30T03:25:36;101568.69;;;7.44;82.63
77452;BME280;66537;52.370;4.832;2023-01-30T03:28:03;101587.56;;;7.40;82.47
77452;BME280;66537;52.370;4.832;2023-01-30T03:30:29;101592.72;;;7.46;82.29
77452;BME280;66537;52.370;4.832;2023-01-30T03:32:55;101592.72;;;7.43;82.72
77452;BME280;66537;52.370;4.832;2023-01-30T03:35:20;101589.31;;;7.41;82.46
77452;BME280;66537;52.370;4.832;2023-01-30T03:37:46;101584.16;;;7.45;82.48
77452;BME280;66537;52.370;4.832;2023-01-30T03:40:13;101592.72;;;7.46;82.48
77452;BME280;66537;52.370;4.832;2023-01-30T03:42:39;101582.41;;;7.47;82.43
77452;BME280;66537;52.370;4.832;2023-01-30T03:45:05;101583.25;;;7.49;82.40
77452;BME280;66537;52.370;4.832;2023-01-30T03:47:30;101578.97;;;7.48;82.40
77452;BME280;66537;52.370;4.832;2023-01-30T03:49:55;101574.69;;;7.49;82.62
77452;BME280;66537;52.370;4.832;2023-01-30T03:52:21;101581.53;;;7.54;82.30
77452;BME280;66537;52.370;4.832;2023-01-30T03:54:46;101577.25;;;7.50;82.37
77452;BME280;66537;52.370;4.832;2023-01-30T03:57:12;101580.66;;;7.55;82.12
77452;BME280;66537;52.370;4.832;2023-01-30T03:59:37;101557.50;;;7.57;81.78
77452;BME280;66537;52.370;4.832;2023-01-30T04:02:02;101582.38;;;7.56;81.63
77452;BME280;66537;52.370;4.832;2023-01-30T04:04:28;101570.38;;;7.51;81.69
77452;BME280;66537;52.370;4.832;2023-01-30T04:06:53;101578.94;;;7.56;81.31
77452;BME280;66537;52.370;4.832;2023-01-30T04:09:18;101573.81;;;7.54;81.04
77452;BME280;66537;52.370;4.832;2023-01-30T04:11:44;101578.97;;;7.54;80.93
77452;BME280;66537;52.370;4.832;2023-01-30T04:14:09;101582.38;;;7.58;80.53
77452;BME280;66537;52.370;4.832;2023-01-30T04:16:35;101570.34;;;7.58;80.10
77452;BME280;66537;52.370;4.832;2023-01-30T04:19:00;101561.78;;;7.52;79.93
77452;BME280;66537;52.370;4.832;2023-01-30T04:21:25;101569.47;;;7.59;79.63
77452;BME280;66537;52.370;4.832;2023-01-30T04:23:51;101583.25;;;7.57;79.87
77452;BME280;66537;52.370;4.832;2023-01-30T04:26:16;101580.66;;;7.55;79.44
77452;BME280;66537;52.370;4.832;2023-01-30T04:28:42;101577.19;;;7.61;78.30
77452;BME280;66537;52.370;4.832;2023-01-30T04:31:08;101588.38;;;7.58;78.53
77452;BME280;66537;52.370;4.832;2023-01-30T04:33:34;101608.09;;;7.59;78.27
77452;BME280;66537;52.370;4.832;2023-01-30T04:36:01;101578.94;;;7.57;78.25
77452;BME280;66537;52.370;4.832;2023-01-30T04:38:28;101612.41;;;7.59;77.37
77452;BME280;66537;52.370;4.832;2023-01-30T04:40:55;101600.41;;;7.55;77.72
77452;BME280;66537;52.370;4.832;2023-01-30T04:43:22;101599.53;;;7.51;77.67
77452;BME280;66537;52.370;4.832;2023-01-30T04:45:49;101591.81;;;7.51;77.50
77452;BME280;66537;52.370;4.832;2023-01-30T04:48:16;101603.84;;;7.52;77.98
77452;BME280;66537;52.370;4.832;2023-01-30T04:50:43;101590.97;;;7.48;77.56
77452;BME280;66537;52.370;4.832;2023-01-30T04:53:09;101598.75;;;7.39;78.20
77452;BME280;66537;52.370;4.832;2023-01-30T04:55:35;101590.19;;;7.35;77.90
77452;BME280;66537;52.370;4.832;2023-01-30T04:58:01;101600.47;;;7.32;77.57
77452;BME280;66537;52.370;4.832;2023-01-30T05:00:26;101607.38;;;7.25;77.73
77452;BME280;66537;52.370;4.832;2023-01-30T05:02:52;101603.09;;;7.18;78.15
77452;BME280;66537;52.370;4.832;2023-01-30T05:05:20;101611.69;;;7.08;77.64
77452;BME280;66537;52.370;4.832;2023-01-30T05:07:46;101612.56;;;7.03;76.96
77452;BME280;66537;52.370;4.832;2023-01-30T05:10:11;101614.31;;;6.95;76.60
77452;BME280;66537;52.370;4.832;2023-01-30T05:12:36;101598.88;;;6.86;75.92
77452;BME280;66537;52.370;4.832;2023-01-30T05:15:02;101606.63;;;6.81;75.90
77452;BME280;66537;52.370;4.832;2023-01-30T05:17:27;101607.47;;;6.79;74.34
77452;BME280;66537;52.370;4.832;2023-01-30T05:19:52;101616.03;;;6.75;73.47
77452;BME280;66537;52.370;4.832;2023-01-30T05:22:18;101615.16;;;6.82;72.21
77452;BME280;66537;52.370;4.832;2023-01-30T05:24:43;101622.06;;;6.68;72.69
77452;BME280;66537;52.370;4.832;2023-01-30T05:27:08;101620.31;;;6.61;72.10
77452;BME280;66537;52.370;4.832;2023-01-30T05:29:34;101618.63;;;6.69;70.83
77452;BME280;66537;52.370;4.832;2023-01-30T05:31:59;101611.75;;;6.71;70.24
77452;BME280;66537;52.370;4.832;2023-01-30T05:34:24;101618.63;;;6.66;70.14
77452;BME280;66537;52.370;4.832;2023-01-30T05:36:50;101629.75;;;6.65;70.24
77452;BME280;66537;52.370;4.832;2023-01-30T05:39:15;101626.34;;;6.61;70.95
77452;BME280;66537;52.370;4.832;2023-01-30T05:41:40;101619.50;;;6.62;71.28
77452;BME280;66537;52.370;4.832;2023-01-30T05:44:06;101638.31;;;6.59;71.83
77452;BME280;66537;52.370;4.832;2023-01-30T05:46:31;101628.06;;;6.64;71.80
77452;BME280;66537;52.370;4.832;2023-01-30T05:48:56;101640.03;;;6.59;72.17
77452;BME280;66537;52.370;4.832;2023-01-30T05:51:24;101638.31;;;6.52;72.62
77452;BME280;66537;52.370;4.832;2023-01-30T05:53:50;101632.31;;;6.45;73.13
77452;BME280;66537;52.370;4.832;2023-01-30T05:56:16;101620.31;;;6.53;72.89
77452;BME280;66537;52.370;4.832;2023-01-30T05:58:42;101634.88;;;6.51;73.26
77452;BME280;66537;52.370;4.832;2023-01-30T06:01:11;101629.75;;;6.47;73.85
77452;BME280;66537;52.370;4.832;2023-01-30T06:03:37;101622.91;;;6.46;73.55
77452;BME280;66537;52.370;4.832;2023-01-30T06:06:04;101634.91;;;6.48;73.93
77452;BME280;66537;52.370;4.832;2023-01-30T06:08:30;101639.19;;;6.52;73.87
77452;BME280;66537;52.370;4.832;2023-01-30T06:11:00;101645.16;;;6.45;74.70
77452;BME280;66537;52.370;4.832;2023-01-30T06:13:25;101658.00;;;6.45;74.40
77452;BME280;66537;52.370;4.832;2023-01-30T06:15:51;101646.88;;;6.45;74.02
77452;BME280;66537;52.370;4.832;2023-01-30T06:18:17;101656.28;;;6.41;74.19
77452;BME280;66537;52.370;4.832;2023-01-30T06:20:46;101652.03;;;6.40;73.85
77452;BME280;66537;52.370;4.832;2023-01-30T06:23:12;101664.00;;;6.38;73.30
77452;BME280;66537;52.370;4.832;2023-01-30T06:25:38;101652.91;;;6.41;72.76
77452;BME280;66537;52.370;4.832;2023-01-30T06:28:06;101652.88;;;6.42;72.36
77452;BME280;66537;52.370;4.832;2023-01-30T06:30:31;101641.72;;;6.35;72.64
77452;BME280;66537;52.370;4.832;2023-01-30T06:32:57;101648.59;;;6.46;72.61
77452;BME280;66537;52.370;4.832;2023-01-30T06:35:22;101649.47;;;6.38;72.97
77452;BME280;66537;52.370;4.832;2023-01-30T06:37:47;101646.03;;;6.43;72.30
77452;BME280;66537;52.370;4.832;2023-01-30T06:40:13;101653.72;;;6.39;72.42
77452;BME280;66537;52.370;4.832;2023-01-30T06:42:45;101642.59;;;6.45;71.22
77452;BME280;66537;52.370;4.832;2023-01-30T06:45:14;101652.88;;;6.42;71.46
77452;BME280;66537;52.370;4.832;2023-01-30T06:47:53;101659.72;;;6.42;71.15
77452;BME280;66537;52.370;4.832;2023-01-30T06:50:21;101660.59;;;6.45;69.88
77452;BME280;66537;52.370;4.832;2023-01-30T06:52:48;101668.28;;;6.39;70.39
77452;BME280;66537;52.370;4.832;2023-01-30T06:55:15;101674.28;;;6.29;70.62
77452;BME280;66537;52.370;4.832;2023-01-30T06:57:42;101663.97;;;6.27;70.58
77452;BME280;66537;52.370;4.832;2023-01-30T07:00:10;101666.56;;;6.26;70.63
77452;BME280;66537;52.370;4.832;2023-01-30T07:02:36;101668.25;;;6.25;70.29
77452;BME280;66537;52.370;4.832;2023-01-30T07:05:03;101660.56;;;6.28;69.34
77452;BME280;66537;52.370;4.832;2023-01-30T07:07:30;101682.00;;;6.29;69.37
77452;BME280;66537;52.370;4.832;2023-01-30T07:09:56;101691.44;;;6.36;69.25
77452;BME280;66537;52.370;4.832;2023-01-30T07:12:22;101695.72;;;6.32;69.25
77452;BME280;66537;52.370;4.832;2023-01-30T07:14:48;101681.09;;;6.24;69.38
77452;BME280;66537;52.370;4.832;2023-01-30T07:17:14;101694.84;;;6.29;69.10
77452;BME280;66537;52.370;4.832;2023-01-30T07:19:40;101679.44;;;6.30;69.37
77452;BME280;66537;52.370;4.832;2023-01-30T07:22:06;101689.69;;;6.27;69.81
77452;BME280;66537;52.370;4.832;2023-01-30T07:24:31;101689.69;;;6.35;70.15
77452;BME280;66537;52.370;4.832;2023-01-30T07:26:56;101686.28;;;6.45;70.05
77452;BME280;66537;52.370;4.832;2023-01-30T07:29:22;101689.72;;;6.46;69.85
77452;BME280;66537;52.370;4.832;2023-01-30T07:31:47;101676.88;;;6.38;70.24
77452;BME280;66537;52.370;4.832;2023-01-30T07:34:12;101688.03;;;6.48;70.16
77452;BME280;66537;52.370;4.832;2023-01-30T07:36:38;101699.13;;;6.45;69.84
77452;BME280;66537;52.370;4.832;2023-01-30T07:39:04;101706.03;;;6.52;69.31
77452;BME280;66537;52.370;4.832;2023-01-30T07:41:29;101685.44;;;6.51;69.47
77452;BME280;66537;52.370;4.832;2023-01-30T07:43:55;101687.13;;;6.39;69.94
77452;BME280;66537;52.370;4.832;2023-01-30T07:46:20;101688.84;;;6.37;69.88
77452;BME280;66537;52.370;4.832;2023-01-30T07:48:45;101701.69;;;6.39;69.76
77452;BME280;66537;52.370;4.832;2023-01-30T07:51:11;101698.28;;;6.51;68.98
77452;BME280;66537;52.370;4.832;2023-01-30T07:53:37;101680.31;;;6.57;68.97
77452;BME280;66537;52.370;4.832;2023-01-30T07:56:07;101710.31;;;6.59;68.00
77452;BME280;66537;52.370;4.832;2023-01-30T07:58:32;101718.03;;;6.59;68.34
77452;BME280;66537;52.370;4.832;2023-01-30T08:00:57;101707.75;;;6.61;68.21
77452;BME280;66537;52.370;4.832;2023-01-30T08:03:23;101700.00;;;6.62;68.10
77452;BME280;66537;52.370;4.832;2023-01-30T08:05:48;101698.31;;;6.57;68.84
77452;BME280;66537;52.370;4.832;2023-01-30T08:08:14;101698.31;;;6.57;68.86
77452;BME280;66537;52.370;4.832;2023-01-30T08:10:39;101696.59;;;6.65;68.47
77452;BME280;66537;52.370;4.832;2023-01-30T08:13:05;101701.75;;;6.57;68.89
77452;BME280;66537;52.370;4.832;2023-01-30T08:15:30;101711.16;;;6.63;68.59
77452;BME280;66537;52.370;4.832;2023-01-30T08:17:58;101715.47;;;6.58;69.23
77452;BME280;66537;52.370;4.832;2023-01-30T08:20:25;101726.63;;;6.67;68.53
77452;BME280;66537;52.370;4.832;2023-01-30T08:22:51;101705.19;;;6.65;68.41
77452;BME280;66537;52.370;4.832;2023-01-30T08:25:16;101733.47;;;6.73;67.98
77452;BME280;66537;52.370;4.832;2023-01-30T08:27:42;101745.47;;;6.74;68.63
77452;BME280;66537;52.370;4.832;2023-01-30T08:30:08;101749.75;;;6.75;69.09
77452;BME280;66537;52.370;4.832;2023-01-30T08:32:34;101760.03;;;6.72;69.10
77452;BME280;66537;52.370;4.832;2023-01-30T08:34:59;101763.47;;;6.71;69.72
77452;BME280;66537;52.370;4.832;2023-01-30T08:37:25;101766.03;;;6.68;70.01
77452;BME280;66537;52.370;4.832;2023-01-30T08:39:50;101758.31;;;6.69;69.99
77452;BME280;66537;52.370;4.832;2023-01-30T08:42:15;101766.91;;;6.71;70.14
77452;BME280;66537;52.370;4.832;2023-01-30T08:44:41;101763.47;;;6.77;69.75
77452;BME280;66537;52.370;4.832;2023-01-30T08:47:06;101770.34;;;6.79;69.92
77452;BME280;66537;52.370;4.832;2023-01-30T08:49:31;101778.06;;;6.82;69.23
77452;BME280;66537;52.370;4.832;2023-01-30T08:51:56;101769.50;;;6.91;68.92
77452;BME280;66537;52.370;4.832;2023-01-30T08:54:22;101804.66;;;6.92;68.52
77452;BME280;66537;52.370;4.832;2023-01-30T08:56:47;101786.63;;;6.93;69.15
77452;BME280;66537;52.370;4.832;2023-01-30T08:59:12;101810.63;;;6.88;69.08
77452;BME280;66537;52.370;4.832;2023-01-30T09:01:38;101805.50;;;6.86;68.63
77452;BME280;66537;52.370;4.832;2023-01-30T09:04:03;101796.91;;;6.86;68.76
77452;BME280;66537;52.370;4.832;2023-01-30T09:06:29;101814.09;;;6.88;68.15
77452;BME280;66537;52.370;4.832;2023-01-30T09:08:54;101812.38;;;6.96;68.27
77452;BME280;66537;52.370;4.832;2023-01-30T09:11:19;101802.94;;;7.00;68.65
77452;BME280;66537;52.370;4.832;2023-01-30T09:13:45;101802.09;;;6.96;68.68
77452;BME280;66537;52.370;4.832;2023-01-30T09:16:11;101816.66;;;6.97;68.26
77452;BME280;66537;52.370;4.832;2023-01-30T09:18:40;101814.94;;;7.01;68.49
77452;BME280;66537;52.370;4.832;2023-01-30T09:21:07;101801.22;;;7.03;68.81
77452;BME280;66537;52.370;4.832;2023-01-30T09:23:33;101795.22;;;7.00;69.10
77452;BME280;66537;52.370;4.832;2023-01-30T09:25:58;101816.66;;;7.03;68.55
77452;BME280;66537;52.370;4.832;2023-01-30T09:28:24;101810.69;;;6.98;68.66
77452;BME280;66537;52.370;4.832;2023-01-30T09:30:50;101817.53;;;6.95;68.78
77452;BME280;66537;52.370;4.832;2023-01-30T09:33:15;101826.09;;;6.92;69.18
77452;BME280;66537;52.370;4.832;2023-01-30T09:35:46;101847.53;;;6.97;69.17
77452;BME280;66537;52.370;4.832;2023-01-30T09:38:12;101838.13;;;6.95;69.01
77452;BME280;66537;52.370;4.832;2023-01-30T09:40:46;101837.25;;;7.00;69.00
77452;BME280;66537;52.370;4.832;2023-01-30T09:46:31;101849.25;;;7.01;69.12
77452;BME280;66537;52.370;4.832;2023-01-30T09:52:33;101870.69;;;7.03;68.64
77452;BME280;66537;52.370;4.832;2023-01-30T09:55:17;101843.28;;;7.10;68.55
77452;BME280;66537;52.370;4.832;2023-01-30T09:57:46;101845.84;;;7.10;68.64
77452;BME280;66537;52.370;4.832;2023-01-30T10:00:24;101857.00;;;7.12;68.32
77452;BME280;66537;52.370;4.832;2023-01-30T10:03:00;101848.41;;;7.11;68.76
77452;BME280;66537;52.370;4.832;2023-01-30T10:05:41;101869.88;;;7.13;68.78
77452;BME280;66537;52.370;4.832;2023-01-30T10:10:47;101879.31;;;7.10;68.41
77452;BME280;66537;52.370;4.832;2023-01-30T10:13:37;101888.72;;;7.09;68.87
77452;BME280;66537;52.370;4.832;2023-01-30T10:16:30;101888.72;;;7.12;68.75
77452;BME280;66537;52.370;4.832;2023-01-30T10:26:52;101899.91;;;7.25;68.47
77452;BME280;66537;52.370;4.832;2023-01-30T10:29:30;101899.00;;;7.12;68.36
77452;BME280;66537;52.370;4.832;2023-01-30T10:32:06;101896.47;;;7.23;68.70
77452;BME280;66537;52.370;4.832;2023-01-30T10:34:37;101886.19;;;7.30;68.78
77452;BME280;66537;52.370;4.832;2023-01-30T10:42:27;101908.50;;;7.50;67.67
77452;BME280;66537;52.370;4.832;2023-01-30T10:44:59;101893.09;;;7.53;67.15
77452;BME280;66537;52.370;4.832;2023-01-30T10:47:40;101915.38;;;7.37;67.13
77452;BME280;66537;52.370;4.832;2023-01-30T10:50:13;101912.81;;;7.48;67.88
77452;BME280;66537;52.370;4.832;2023-01-30T10:52:56;101917.94;;;7.49;67.66
77452;BME280;66537;52.370;4.832;2023-01-30T10:55:34;101905.09;;;7.91;66.51
77452;BME280;66537;52.370;4.832;2023-01-30T10:58:47;101904.22;;;8.10;66.08
77452;BME280;66537;52.370;4.832;2023-01-30T11:01:14;101905.09;;;8.00;66.39
77452;BME280;66537;52.370;4.832;2023-01-30T11:06:37;101906.81;;;7.95;66.83
77452;BME280;66537;52.370;4.832;2023-01-30T11:09:02;101900.75;;;8.30;66.55
77452;BME280;66537;52.370;4.832;2023-01-30T11:11:38;101899.94;;;8.05;66.81
77452;BME280;66537;52.370;4.832;2023-01-30T11:14:08;101887.03;;;8.32;66.62
77452;BME280;66537;52.370;4.832;2023-01-30T11:16:46;101903.34;;;8.30;66.04
77452;BME280;66537;52.370;4.832;2023-01-30T11:19:13;101900.78;;;8.02;67.25
77452;BME280;66537;52.370;4.832;2023-01-30T11:21:40;101911.97;;;8.09;66.87
77452;BME280;66537;52.370;4.832;2023-01-30T11:24:22;101914.47;;;8.42;66.23
77452;BME280;66537;52.370;4.832;2023-01-30T11:26:48;101905.91;;;8.31;66.12
77452;BME280;66537;52.370;4.832;2023-01-30T11:29:31;101904.22;;;8.10;66.35
77452;BME280;66537;52.370;4.832;2023-01-30T11:32:03;101917.97;;;8.05;67.06
77452;BME280;66537;52.370;4.832;2023-01-30T11:34:29;101912.81;;;8.26;66.69
77452;BME280;66537;52.370;4.832;2023-01-30T11:37:11;101905.91;;;8.17;66.44
77452;BME280;66537;52.370;4.832;2023-01-30T11:39:47;101923.03;;;8.59;65.53
77452;BME280;66537;52.370;4.832;2023-01-30T11:42:18;101925.50;;;8.85;65.30
77452;BME280;66537;52.370;4.832;2023-01-30T11:44:43;101913.53;;;8.66;65.41
77452;BME280;66537;52.370;4.832;2023-01-30T11:47:18;101910.94;;;8.67;65.33
77452;BME280;66537;52.370;4.832;2023-01-30T11:49:48;101938.38;;;8.95;64.41
77452;BME280;66537;52.370;4.832;2023-01-30T11:52:27;101928.88;;;8.94;64.30
77452;BME280;66537;52.370;4.832;2023-01-30T11:54:58;101927.88;;;9.24;64.27
77452;BME280;66537;52.370;4.832;2023-01-30T11:57:38;101929.69;;;9.07;64.23
77452;BME280;66537;52.370;4.832;2023-01-30T12:00:04;101933.97;;;9.11;64.42
77452;BME280;66537;52.370;4.832;2023-01-30T12:02:32;101918.41;;;9.22;64.03
77452;BME280;66537;52.370;4.832;2023-01-30T12:05:02;101922.00;;;8.96;64.36
77452;BME280;66537;52.370;4.832;2023-01-30T12:07:33;101934.88;;;9.07;63.28
77452;BME280;66537;52.370;4.832;2023-01-30T12:10:00;101929.56;;;9.28;62.80
77452;BME280;66537;52.370;4.832;2023-01-30T12:12:46;101935.56;;;9.36;62.90
77452;BME280;66537;52.370;4.832;2023-01-30T12:23:38;101953.75;;;9.15;62.34
77452;BME280;66537;52.370;4.832;2023-01-30T12:26:49;101941.59;;;9.34;61.64
77452;BME280;66537;52.370;4.832;2023-01-30T12:29:15;101951.88;;;9.41;61.73
77452;BME280;66537;52.370;4.832;2023-01-30T12:31:45;101949.50;;;9.00;63.22
77452;BME280;66537;52.370;4.832;2023-01-30T12:34:12;101981.13;;;9.43;62.19
77452;BME280;66537;52.370;4.832;2023-01-30T12:36:49;101952.91;;;9.08;62.96
77452;BME280;66537;52.370;4.832;2023-01-30T12:45:13;101971.22;;;8.29;64.77
77452;BME280;66537;52.370;4.832;2023-01-30T12:59:13;101964.34;;;8.08;65.48
77452;BME280;66537;52.370;4.832;2023-01-30T13:12:22;101980.66;;;8.39;64.63
77452;BME280;66537;52.370;4.832;2023-01-30T13:15:31;101978.94;;;8.35;64.55
77452;BME280;66537;52.370;4.832;2023-01-30T13:17:58;101998.69;;;8.19;65.37
77452;BME280;66537;52.370;4.832;2023-01-30T13:25:58;102002.13;;;8.07;65.35
77452;BME280;66537;52.370;4.832;2023-01-30T13:28:31;102002.13;;;8.15;65.61
77452;BME280;66537;52.370;4.832;2023-01-30T13:31:00;101999.56;;;8.18;64.80
77452;BME280;66537;52.370;4.832;2023-01-30T13:33:31;102007.31;;;8.32;64.83
77452;BME280;66537;52.370;4.832;2023-01-30T13:39:04;102001.31;;;8.30;64.36
77452;BME280;66537;52.370;4.832;2023-01-30T13:41:39;102020.19;;;8.13;65.26
77452;BME280;66537;52.370;4.832;2023-01-30T13:44:17;102017.59;;;8.19;65.25
77452;BME280;66537;52.370;4.832;2023-01-30T13:46:46;102021.03;;;8.21;65.61
77452;BME280;66537;52.370;4.832;2023-01-30T13:51:47;102016.72;;;8.54;65.48
77452;BME280;66537;52.370;4.832;2023-01-30T13:54:29;102023.63;;;8.67;65.50
77452;BME280;66537;52.370;4.832;2023-01-30T14:02:22;102035.69;;;8.30;65.28
77452;BME280;66537;52.370;4.832;2023-01-30T14:04:56;102050.28;;;8.36;64.98
77452;BME280;66537;52.370;4.832;2023-01-30T14:07:39;102057.13;;;8.21;64.94
77452;BME280;66537;52.370;4.832;2023-01-30T14:12:36;102058.88;;;8.27;63.56
77452;BME280;66537;52.370;4.832;2023-01-30T14:20:51;102080.38;;;8.26;64.66
77452;BME280;66537;52.370;4.832;2023-01-30T14:23:35;102090.63;;;8.17;64.31
77452;BME280;66537;52.370;4.832;2023-01-30T14:26:01;102094.06;;;8.08;64.39
77452;BME280;66537;52.370;4.832;2023-01-30T14:30:56;102108.69;;;8.15;65.04
77452;BME280;66537;52.370;4.832;2023-01-30T14:38:28;102150.81;;;8.27;64.60
77452;BME280;66537;52.370;4.832;2023-01-30T14:43:26;102134.44;;;8.11;64.16
77452;BME280;66537;52.370;4.832;2023-01-30T14:45:59;102130.16;;;8.11;64.02
77452;BME280;66537;52.370;4.832;2023-01-30T14:56:50;102173.94;;;7.96;64.13
77452;BME280;66537;52.370;4.832;2023-01-30T15:01:57;102167.03;;;7.89;63.92
77452;BME280;66537;52.370;4.832;2023-01-30T15:04:26;102184.22;;;7.90;63.96
77452;BME280;66537;52.370;4.832;2023-01-30T15:06:53;102184.19;;;7.84;64.30
77452;BME280;66537;52.370;4.832;2023-01-30T15:09:22;102177.28;;;7.79;64.48
77452;BME280;66537;52.370;4.832;2023-01-30T15:23:09;102203.00;;;7.64;65.98
77452;BME280;66537;52.370;4.832;2023-01-30T15:26:06;102198.69;;;7.63;66.46
77452;BME280;66537;52.370;4.832;2023-01-30T15:31:12;102230.44;;;7.59;67.10
77452;BME280;66537;52.370;4.832;2023-01-30T15:33:48;102221.69;;;7.32;70.41
77452;BME280;66537;52.370;4.832;2023-01-30T15:39:04;102247.06;;;6.87;74.38
77452;BME280;66537;52.370;4.832;2023-01-30T15:41:39;102246.09;;;6.75;72.84
77452;BME280;66537;52.370;4.832;2023-01-30T15:49:58;102269.97;;;6.62;73.41